This is the latest recevied weather packets stored in our database for station/object WC0AA. If no packets are shown the sender has not sent any weather packets the latest 10 day(s).
| Time | Temp. | Humidity | Pressure | Rain* | Wind** | Luminosity | Snow |
|---|---|---|---|---|---|---|---|
| 1778197204 | 23.89° C | 31% | 1008.3 hPa | 0 mm | - | - | - |
| 1778188804 | 23.89° C | 33% | 1009.4 hPa | 0 mm | - | - | - |
| 1778187004 | 23.89° C | 32% | 1009.8 hPa | 0 mm | - | - | - |
| 1778186404 | 23.89° C | 33% | 1010 hPa | 0 mm | - | - | - |
| 1778182804 | 22.78° C | 34% | 1010.7 hPa | 0 mm | - | - | - |
| 1778176804 | 20.56° C | 38% | 1011.7 hPa | 0 mm | - | - | - |
| 1778174404 | 19.44° C | 41% | 1012.8 hPa | 0 mm | - | - | - |
| 1778172604 | 18.89° C | 43% | 1013.1 hPa | 0 mm | - | - | - |
| 1778170204 | 17.22° C | 46% | 1013.4 hPa | 0 mm | - | - | - |
| 1778167804 | 16.67° C | 51% | 1014.1 hPa | 0 mm | - | - | - |
| 1778166004 | 15.56° C | 54% | 1014.1 hPa | 0 mm | - | - | - |
| 1778165404 | 15° C | 56% | 1014.3 hPa | 0 mm | - | - | - |
| 1778164804 | 14.44° C | 58% | 1014.4 hPa | 0 mm | - | - | - |
| 1778162404 | 12.22° C | 66% | 1014.8 hPa | 0 mm | - | - | - |
| 1778161204 | 11.67° C | 68% | 1014.9 hPa | 0 mm | - | - | - |
| 1778159404 | 10.56° C | 73% | 1014.9 hPa | 0 mm | - | - | - |
| 1778155804 | 8.33° C | 82% | 1014.5 hPa | 0 mm | - | - | - |
| 1778154004 | 7.22° C | 86% | 1015 hPa | 0 mm | - | - | - |
| 1778153405 | 6.67° C | 87% | 1015 hPa | 0 mm | - | - | - |
| 1778146204 | 6.67° C | 84% | 1015.7 hPa | 0 mm | - | - | - |
| 1778137805 | 7.22° C | 74% | 1016.6 hPa | 0 mm | - | - | - |
| 1778131204 | 8.89° C | 63% | 1017.1 hPa | 0 mm | - | - | - |
| 1778123404 | 8.33° C | 59% | 1017.1 hPa | 0 mm | - | - | - |
| 1778121604 | 8.33° C | 61% | 1017 hPa | 0 mm | - | - | - |
| 1778103604 | 18.33° C | 28% | 1017.5 hPa | 0 mm | - | - | - |
* Rain latest hour (hover to see other rain measurements)
** Current wind speed in m/s (hover to see current wind gust speed)